sensor_id;sensor_type;location;lat;lon;timestamp;temperature;humidity
20376;DHT22;10347;51.828;6.466;2023-11-19T00:01:26;13.20;99.90
20376;DHT22;10347;51.828;6.466;2023-11-19T00:03:52;13.20;99.90
20376;DHT22;10347;51.828;6.466;2023-11-19T00:06:18;13.20;99.90
20376;DHT22;10347;51.828;6.466;2023-11-19T00:08:44;13.20;99.90
20376;DHT22;10347;51.828;6.466;2023-11-19T00:11:09;13.30;99.90
20376;DHT22;10347;51.828;6.466;2023-11-19T00:13:36;13.30;99.90
20376;DHT22;10347;51.828;6.466;2023-11-19T00:16:02;13.30;99.90
20376;DHT22;10347;51.828;6.466;2023-11-19T00:18:29;13.30;99.90
20376;DHT22;10347;51.828;6.466;2023-11-19T00:20:55;13.30;99.90
20376;DHT22;10347;51.828;6.466;2023-11-19T00:23:20;13.40;99.90
20376;DHT22;10347;51.828;6.466;2023-11-19T00:25:46;13.40;99.90
20376;DHT22;10347;51.828;6.466;2023-11-19T00:28:13;13.40;99.90
20376;DHT22;10347;51.828;6.466;2023-11-19T00:30:38;13.40;99.90
20376;DHT22;10347;51.828;6.466;2023-11-19T00:33:06;13.40;99.90
20376;DHT22;10347;51.828;6.466;2023-11-19T00:35:31;13.50;99.90
20376;DHT22;10347;51.828;6.466;2023-11-19T00:37:57;13.50;99.90
20376;DHT22;10347;51.828;6.466;2023-11-19T00:40:23;13.50;99.90
20376;DHT22;10347;51.828;6.466;2023-11-19T00:42:49;13.50;99.90
20376;DHT22;10347;51.828;6.466;2023-11-19T00:45:14;13.60;99.90
20376;DHT22;10347;51.828;6.466;2023-11-19T00:47:40;13.60;99.90
20376;DHT22;10347;51.828;6.466;2023-11-19T00:50:07;13.60;99.90
20376;DHT22;10347;51.828;6.466;2023-11-19T00:52:35;13.60;99.90
20376;DHT22;10347;51.828;6.466;2023-11-19T00:55:01;13.70;99.90
20376;DHT22;10347;51.828;6.466;2023-11-19T00:57:26;13.70;99.90
20376;DHT22;10347;51.828;6.466;2023-11-19T00:59:52;13.70;99.90
20376;DHT22;10347;51.828;6.466;2023-11-19T01:02:17;13.70;99.90
20376;DHT22;10347;51.828;6.466;2023-11-19T01:04:43;13.70;99.90
20376;DHT22;10347;51.828;6.466;2023-11-19T01:07:09;13.80;99.90
20376;DHT22;10347;51.828;6.466;2023-11-19T01:09:38;13.80;99.90
20376;DHT22;10347;51.828;6.466;2023-11-19T01:12:03;13.80;99.90
20376;DHT22;10347;51.828;6.466;2023-11-19T01:14:30;13.80;99.90
20376;DHT22;10347;51.828;6.466;2023-11-19T01:16:56;13.90;99.90
20376;DHT22;10347;51.828;6.466;2023-11-19T01:19:22;13.90;99.90
20376;DHT22;10347;51.828;6.466;2023-11-19T01:21:48;13.90;99.90
20376;DHT22;10347;51.828;6.466;2023-11-19T01:24:14;13.90;99.90
20376;DHT22;10347;51.828;6.466;2023-11-19T01:26:40;14.00;99.90
20376;DHT22;10347;51.828;6.466;2023-11-19T01:29:11;14.00;99.90
20376;DHT22;10347;51.828;6.466;2023-11-19T01:31:39;13.90;99.90
20376;DHT22;10347;51.828;6.466;2023-11-19T01:34:05;14.00;99.90
20376;DHT22;10347;51.828;6.466;2023-11-19T01:36:30;14.00;99.90
20376;DHT22;10347;51.828;6.466;2023-11-19T01:38:56;14.00;99.90
20376;DHT22;10347;51.828;6.466;2023-11-19T01:41:21;14.00;99.90
20376;DHT22;10347;51.828;6.466;2023-11-19T01:43:47;14.00;99.90
20376;DHT22;10347;51.828;6.466;2023-11-19T01:46:12;14.00;99.90
20376;DHT22;10347;51.828;6.466;2023-11-19T01:48:44;14.10;99.90
20376;DHT22;10347;51.828;6.466;2023-11-19T01:51:14;14.10;99.90
20376;DHT22;10347;51.828;6.466;2023-11-19T01:53:43;14.10;99.90
20376;DHT22;10347;51.828;6.466;2023-11-19T01:56:09;14.10;99.90
20376;DHT22;10347;51.828;6.466;2023-11-19T01:58:37;14.10;99.90
20376;DHT22;10347;51.828;6.466;2023-11-19T02:01:05;14.10;99.90
20376;DHT22;10347;51.828;6.466;2023-11-19T02:03:34;14.20;99.90
20376;DHT22;10347;51.828;6.466;2023-11-19T02:06:00;14.20;99.90
20376;DHT22;10347;51.828;6.466;2023-11-19T02:08:26;14.10;99.90
20376;DHT22;10347;51.828;6.466;2023-11-19T02:10:52;14.10;99.90
20376;DHT22;10347;51.828;6.466;2023-11-19T02:13:18;14.20;99.90
20376;DHT22;10347;51.828;6.466;2023-11-19T02:15:44;14.20;99.90
20376;DHT22;10347;51.828;6.466;2023-11-19T02:18:23;14.20;99.90
20376;DHT22;10347;51.828;6.466;2023-11-19T02:20:50;14.20;99.90
20376;DHT22;10347;51.828;6.466;2023-11-19T02:23:16;14.20;99.90
20376;DHT22;10347;51.828;6.466;2023-11-19T02:25:43;14.20;99.90
20376;DHT22;10347;51.828;6.466;2023-11-19T02:28:10;14.20;99.90
20376;DHT22;10347;51.828;6.466;2023-11-19T02:30:37;14.20;99.90
20376;DHT22;10347;51.828;6.466;2023-11-19T02:33:03;14.20;99.90
20376;DHT22;10347;51.828;6.466;2023-11-19T02:35:31;14.20;99.90
20376;DHT22;10347;51.828;6.466;2023-11-19T02:37:58;14.20;99.90
20376;DHT22;10347;51.828;6.466;2023-11-19T02:40:26;14.20;99.90
20376;DHT22;10347;51.828;6.466;2023-11-19T02:42:53;14.30;99.90
20376;DHT22;10347;51.828;6.466;2023-11-19T02:45:19;14.20;99.90
20376;DHT22;10347;51.828;6.466;2023-11-19T02:47:45;14.30;99.90
20376;DHT22;10347;51.828;6.466;2023-11-19T02:50:11;14.30;99.90
20376;DHT22;10347;51.828;6.466;2023-11-19T02:52:40;14.30;99.90
20376;DHT22;10347;51.828;6.466;2023-11-19T02:55:06;14.20;99.90
20376;DHT22;10347;51.828;6.466;2023-11-19T02:57:35;14.30;99.90
20376;DHT22;10347;51.828;6.466;2023-11-19T03:00:01;14.30;99.90
20376;DHT22;10347;51.828;6.466;2023-11-19T03:02:29;14.30;99.90
20376;DHT22;10347;51.828;6.466;2023-11-19T03:04:59;14.30;99.90
20376;DHT22;10347;51.828;6.466;2023-11-19T03:07:25;14.30;99.90
20376;DHT22;10347;51.828;6.466;2023-11-19T03:09:50;14.30;99.90
20376;DHT22;10347;51.828;6.466;2023-11-19T03:12:16;14.30;99.90
20376;DHT22;10347;51.828;6.466;2023-11-19T03:14:41;14.30;99.90
20376;DHT22;10347;51.828;6.466;2023-11-19T03:17:07;14.30;99.90
20376;DHT22;10347;51.828;6.466;2023-11-19T03:19:35;14.30;99.90
20376;DHT22;10347;51.828;6.466;2023-11-19T03:22:01;14.30;99.90
20376;DHT22;10347;51.828;6.466;2023-11-19T03:24:27;14.30;99.90
20376;DHT22;10347;51.828;6.466;2023-11-19T03:26:53;14.30;99.90
20376;DHT22;10347;51.828;6.466;2023-11-19T03:29:18;14.30;99.90
20376;DHT22;10347;51.828;6.466;2023-11-19T03:31:44;14.30;99.90
20376;DHT22;10347;51.828;6.466;2023-11-19T03:34:12;14.30;99.90
20376;DHT22;10347;51.828;6.466;2023-11-19T03:36:38;14.30;99.90
20376;DHT22;10347;51.828;6.466;2023-11-19T03:39:05;14.30;99.90
20376;DHT22;10347;51.828;6.466;2023-11-19T03:41:30;14.30;99.90
20376;DHT22;10347;51.828;6.466;2023-11-19T03:43:56;14.30;99.90
20376;DHT22;10347;51.828;6.466;2023-11-19T03:46:21;14.20;99.90
20376;DHT22;10347;51.828;6.466;2023-11-19T03:48:48;14.30;99.90
20376;DHT22;10347;51.828;6.466;2023-11-19T03:51:14;14.20;99.90
20376;DHT22;10347;51.828;6.466;2023-11-19T03:53:42;14.20;99.90
20376;DHT22;10347;51.828;6.466;2023-11-19T03:56:09;14.30;99.90
20376;DHT22;10347;51.828;6.466;2023-11-19T03:58:35;14.20;99.90
20376;DHT22;10347;51.828;6.466;2023-11-19T04:01:01;14.30;99.90
20376;DHT22;10347;51.828;6.466;2023-11-19T04:03:27;14.20;99.90
20376;DHT22;10347;51.828;6.466;2023-11-19T04:05:53;14.20;99.90
20376;DHT22;10347;51.828;6.466;2023-11-19T04:08:18;14.20;99.90
20376;DHT22;10347;51.828;6.466;2023-11-19T04:10:44;14.20;99.90
20376;DHT22;10347;51.828;6.466;2023-11-19T04:13:10;14.20;99.90
20376;DHT22;10347;51.828;6.466;2023-11-19T04:15:36;14.20;99.90
20376;DHT22;10347;51.828;6.466;2023-11-19T04:18:01;14.20;99.90
20376;DHT22;10347;51.828;6.466;2023-11-19T04:20:27;14.20;99.90
20376;DHT22;10347;51.828;6.466;2023-11-19T04:22:52;14.20;99.90
20376;DHT22;10347;51.828;6.466;2023-11-19T04:25:19;14.10;99.90
20376;DHT22;10347;51.828;6.466;2023-11-19T04:27:44;14.10;99.90
20376;DHT22;10347;51.828;6.466;2023-11-19T04:30:10;14.10;99.90
20376;DHT22;10347;51.828;6.466;2023-11-19T04:32:37;14.10;99.90
20376;DHT22;10347;51.828;6.466;2023-11-19T04:35:02;14.00;99.90
20376;DHT22;10347;51.828;6.466;2023-11-19T04:37:28;14.00;99.90
20376;DHT22;10347;51.828;6.466;2023-11-19T04:39:54;14.00;99.90
20376;DHT22;10347;51.828;6.466;2023-11-19T04:42:22;14.00;99.90
20376;DHT22;10347;51.828;6.466;2023-11-19T04:44:48;14.00;99.90
20376;DHT22;10347;51.828;6.466;2023-11-19T04:47:14;13.90;99.90
20376;DHT22;10347;51.828;6.466;2023-11-19T04:49:42;13.90;99.90
20376;DHT22;10347;51.828;6.466;2023-11-19T04:52:08;13.90;99.90
20376;DHT22;10347;51.828;6.466;2023-11-19T04:54:34;13.90;99.90
20376;DHT22;10347;51.828;6.466;2023-11-19T04:56:59;13.90;99.90
20376;DHT22;10347;51.828;6.466;2023-11-19T04:59:25;13.80;99.90
20376;DHT22;10347;51.828;6.466;2023-11-19T05:01:50;13.80;99.90
20376;DHT22;10347;51.828;6.466;2023-11-19T05:04:16;13.80;99.90
20376;DHT22;10347;51.828;6.466;2023-11-19T05:06:44;13.80;99.90
20376;DHT22;10347;51.828;6.466;2023-11-19T05:09:09;13.80;99.90
20376;DHT22;10347;51.828;6.466;2023-11-19T05:11:37;13.80;99.90
20376;DHT22;10347;51.828;6.466;2023-11-19T05:14:04;13.70;99.90
20376;DHT22;10347;51.828;6.466;2023-11-19T05:16:30;13.70;99.90
20376;DHT22;10347;51.828;6.466;2023-11-19T05:18:56;13.70;99.90
20376;DHT22;10347;51.828;6.466;2023-11-19T05:21:21;13.70;99.90
20376;DHT22;10347;51.828;6.466;2023-11-19T05:23:47;13.70;99.90
20376;DHT22;10347;51.828;6.466;2023-11-19T05:26:22;13.60;99.90
20376;DHT22;10347;51.828;6.466;2023-11-19T05:28:48;13.60;99.90
20376;DHT22;10347;51.828;6.466;2023-11-19T05:31:15;13.60;99.90
20376;DHT22;10347;51.828;6.466;2023-11-19T05:33:41;13.60;99.90
20376;DHT22;10347;51.828;6.466;2023-11-19T05:36:07;13.60;99.90
20376;DHT22;10347;51.828;6.466;2023-11-19T05:38:36;13.60;99.90
20376;DHT22;10347;51.828;6.466;2023-11-19T05:41:02;13.60;99.90
20376;DHT22;10347;51.828;6.466;2023-11-19T05:43:28;13.60;99.90
20376;DHT22;10347;51.828;6.466;2023-11-19T05:45:53;13.60;99.90
20376;DHT22;10347;51.828;6.466;2023-11-19T05:48:19;13.50;99.90
20376;DHT22;10347;51.828;6.466;2023-11-19T05:50:44;13.50;99.90
20376;DHT22;10347;51.828;6.466;2023-11-19T05:53:10;13.50;99.90
20376;DHT22;10347;51.828;6.466;2023-11-19T05:55:39;13.50;99.90
20376;DHT22;10347;51.828;6.466;2023-11-19T05:58:22;13.50;99.90
20376;DHT22;10347;51.828;6.466;2023-11-19T06:00:48;13.40;99.90
20376;DHT22;10347;51.828;6.466;2023-11-19T06:03:13;13.40;99.90
20376;DHT22;10347;51.828;6.466;2023-11-19T06:05:39;13.40;99.90
20376;DHT22;10347;51.828;6.466;2023-11-19T06:08:04;13.40;99.90
20376;DHT22;10347;51.828;6.466;2023-11-19T06:10:32;13.40;99.90
20376;DHT22;10347;51.828;6.466;2023-11-19T06:12:58;13.40;99.90
20376;DHT22;10347;51.828;6.466;2023-11-19T06:15:27;13.40;99.90
20376;DHT22;10347;51.828;6.466;2023-11-19T06:17:53;13.40;99.90
20376;DHT22;10347;51.828;6.466;2023-11-19T06:20:20;13.40;99.90
20376;DHT22;10347;51.828;6.466;2023-11-19T06:22:46;13.50;99.90
20376;DHT22;10347;51.828;6.466;2023-11-19T06:25:12;13.40;99.90
20376;DHT22;10347;51.828;6.466;2023-11-19T06:27:40;13.30;99.90
20376;DHT22;10347;51.828;6.466;2023-11-19T06:30:07;13.40;99.90
20376;DHT22;10347;51.828;6.466;2023-11-19T06:32:32;13.40;99.90
20376;DHT22;10347;51.828;6.466;2023-11-19T06:34:58;13.40;99.90
20376;DHT22;10347;51.828;6.466;2023-11-19T06:37:23;13.40;99.90
20376;DHT22;10347;51.828;6.466;2023-11-19T06:39:49;13.30;99.90
20376;DHT22;10347;51.828;6.466;2023-11-19T06:42:14;13.30;99.90
20376;DHT22;10347;51.828;6.466;2023-11-19T06:44:40;13.30;99.90
20376;DHT22;10347;51.828;6.466;2023-11-19T06:47:05;13.30;99.90
20376;DHT22;10347;51.828;6.466;2023-11-19T06:49:31;13.30;99.90
20376;DHT22;10347;51.828;6.466;2023-11-19T06:51:58;13.30;99.90
20376;DHT22;10347;51.828;6.466;2023-11-19T06:54:23;13.30;99.90
20376;DHT22;10347;51.828;6.466;2023-11-19T06:56:49;13.30;99.90
20376;DHT22;10347;51.828;6.466;2023-11-19T06:59:14;13.30;99.90
20376;DHT22;10347;51.828;6.466;2023-11-19T07:01:40;13.30;99.90
20376;DHT22;10347;51.828;6.466;2023-11-19T07:04:08;13.30;99.90
20376;DHT22;10347;51.828;6.466;2023-11-19T07:06:35;13.30;99.90
20376;DHT22;10347;51.828;6.466;2023-11-19T07:09:02;13.30;99.90
20376;DHT22;10347;51.828;6.466;2023-11-19T07:11:38;13.30;99.90
20376;DHT22;10347;51.828;6.466;2023-11-19T07:14:04;13.20;99.90
20376;DHT22;10347;51.828;6.466;2023-11-19T07:16:29;13.20;99.90
20376;DHT22;10347;51.828;6.466;2023-11-19T07:18:55;13.20;99.90
20376;DHT22;10347;51.828;6.466;2023-11-19T07:21:20;13.30;99.90
20376;DHT22;10347;51.828;6.466;2023-11-19T07:23:46;13.30;99.90
20376;DHT22;10347;51.828;6.466;2023-11-19T07:26:12;13.30;99.90
20376;DHT22;10347;51.828;6.466;2023-11-19T07:28:38;13.20;99.90
20376;DHT22;10347;51.828;6.466;2023-11-19T07:31:05;13.20;99.90
20376;DHT22;10347;51.828;6.466;2023-11-19T07:33:33;13.20;99.90
20376;DHT22;10347;51.828;6.466;2023-11-19T07:35:59;13.20;99.90
20376;DHT22;10347;51.828;6.466;2023-11-19T07:38:24;13.20;99.90
20376;DHT22;10347;51.828;6.466;2023-11-19T07:40:50;13.20;99.90
20376;DHT22;10347;51.828;6.466;2023-11-19T07:43:15;13.20;99.90
20376;DHT22;10347;51.828;6.466;2023-11-19T07:45:41;13.20;99.90
20376;DHT22;10347;51.828;6.466;2023-11-19T07:48:09;13.20;99.90
20376;DHT22;10347;51.828;6.466;2023-11-19T07:50:35;13.20;99.90
20376;DHT22;10347;51.828;6.466;2023-11-19T07:53:01;13.20;99.90
20376;DHT22;10347;51.828;6.466;2023-11-19T07:55:27;13.30;99.90
20376;DHT22;10347;51.828;6.466;2023-11-19T07:57:53;13.20;99.90
20376;DHT22;10347;51.828;6.466;2023-11-19T08:00:18;13.20;99.90
20376;DHT22;10347;51.828;6.466;2023-11-19T08:02:45;13.20;99.90
20376;DHT22;10347;51.828;6.466;2023-11-19T08:05:10;13.20;99.90
20376;DHT22;10347;51.828;6.466;2023-11-19T08:07:37;13.20;99.90
20376;DHT22;10347;51.828;6.466;2023-11-19T08:10:04;13.20;99.90
20376;DHT22;10347;51.828;6.466;2023-11-19T08:12:30;13.20;99.90
20376;DHT22;10347;51.828;6.466;2023-11-19T08:14:56;13.20;99.90
20376;DHT22;10347;51.828;6.466;2023-11-19T08:17:24;13.20;99.90
20376;DHT22;10347;51.828;6.466;2023-11-19T08:19:50;13.20;99.90
20376;DHT22;10347;51.828;6.466;2023-11-19T08:22:16;13.30;99.90
20376;DHT22;10347;51.828;6.466;2023-11-19T08:24:42;13.20;99.90
20376;DHT22;10347;51.828;6.466;2023-11-19T08:27:08;13.20;99.90
20376;DHT22;10347;51.828;6.466;2023-11-19T08:29:34;13.20;99.90
20376;DHT22;10347;51.828;6.466;2023-11-19T08:32:01;13.20;99.90
20376;DHT22;10347;51.828;6.466;2023-11-19T08:34:27;13.30;99.90
20376;DHT22;10347;51.828;6.466;2023-11-19T08:36:52;13.30;99.90
20376;DHT22;10347;51.828;6.466;2023-11-19T08:39:19;13.30;99.90
20376;DHT22;10347;51.828;6.466;2023-11-19T08:41:46;13.30;99.90
20376;DHT22;10347;51.828;6.466;2023-11-19T08:44:12;13.30;99.90
20376;DHT22;10347;51.828;6.466;2023-11-19T08:46:38;13.30;99.90
20376;DHT22;10347;51.828;6.466;2023-11-19T08:49:05;13.20;99.90
20376;DHT22;10347;51.828;6.466;2023-11-19T08:51:30;13.20;99.90
20376;DHT22;10347;51.828;6.466;2023-11-19T08:53:56;13.30;99.90
20376;DHT22;10347;51.828;6.466;2023-11-19T08:56:22;13.30;99.90
20376;DHT22;10347;51.828;6.466;2023-11-19T08:58:48;13.30;99.90
20376;DHT22;10347;51.828;6.466;2023-11-19T09:01:14;13.30;99.90
20376;DHT22;10347;51.828;6.466;2023-11-19T09:03:39;13.30;99.90
20376;DHT22;10347;51.828;6.466;2023-11-19T09:06:05;13.40;99.90
20376;DHT22;10347;51.828;6.466;2023-11-19T09:08:31;13.40;99.90
20376;DHT22;10347;51.828;6.466;2023-11-19T09:10:56;13.40;99.90
20376;DHT22;10347;51.828;6.466;2023-11-19T09:13:22;13.40;99.90
20376;DHT22;10347;51.828;6.466;2023-11-19T09:15:48;13.40;99.90
20376;DHT22;10347;51.828;6.466;2023-11-19T09:18:13;13.40;99.90
20376;DHT22;10347;51.828;6.466;2023-11-19T09:20:39;13.40;99.90
20376;DHT22;10347;51.828;6.466;2023-11-19T09:23:05;13.40;99.90
20376;DHT22;10347;51.828;6.466;2023-11-19T09:25:31;13.40;99.90
20376;DHT22;10347;51.828;6.466;2023-11-19T09:27:57;13.50;99.90
20376;DHT22;10347;51.828;6.466;2023-11-19T09:30:22;13.50;99.90
20376;DHT22;10347;51.828;6.466;2023-11-19T09:32:48;13.50;99.90
20376;DHT22;10347;51.828;6.466;2023-11-19T09:35:14;13.50;99.90
20376;DHT22;10347;51.828;6.466;2023-11-19T09:37:40;13.50;99.90
20376;DHT22;10347;51.828;6.466;2023-11-19T09:40:07;13.60;99.90
20376;DHT22;10347;51.828;6.466;2023-11-19T09:42:44;13.60;99.90
20376;DHT22;10347;51.828;6.466;2023-11-19T09:45:14;13.60;99.90
20376;DHT22;10347;51.828;6.466;2023-11-19T09:47:43;13.60;99.90
20376;DHT22;10347;51.828;6.466;2023-11-19T09:50:16;13.70;99.90
20376;DHT22;10347;51.828;6.466;2023-11-19T09:52:42;13.70;99.90
20376;DHT22;10347;51.828;6.466;2023-11-19T09:55:08;13.70;99.90
20376;DHT22;10347;51.828;6.466;2023-11-19T09:57:35;13.70;99.90
20376;DHT22;10347;51.828;6.466;2023-11-19T10:00:03;13.70;99.90
20376;DHT22;10347;51.828;6.466;2023-11-19T10:02:31;13.70;99.90
20376;DHT22;10347;51.828;6.466;2023-11-19T10:04:59;13.70;99.90
20376;DHT22;10347;51.828;6.466;2023-11-19T10:07:28;13.80;99.90
20376;DHT22;10347;51.828;6.466;2023-11-19T10:09:53;13.80;99.90
20376;DHT22;10347;51.828;6.466;2023-11-19T10:12:19;13.80;99.90
20376;DHT22;10347;51.828;6.466;2023-11-19T10:14:45;13.80;99.90
20376;DHT22;10347;51.828;6.466;2023-11-19T10:17:11;13.80;99.90
20376;DHT22;10347;51.828;6.466;2023-11-19T10:19:36;13.80;99.90
20376;DHT22;10347;51.828;6.466;2023-11-19T10:22:05;13.90;99.90
20376;DHT22;10347;51.828;6.466;2023-11-19T10:24:34;13.90;99.90
20376;DHT22;10347;51.828;6.466;2023-11-19T10:27:03;13.90;99.90
20376;DHT22;10347;51.828;6.466;2023-11-19T10:29:36;13.90;99.90
20376;DHT22;10347;51.828;6.466;2023-11-19T10:32:03;13.90;99.90
20376;DHT22;10347;51.828;6.466;2023-11-19T10:34:28;13.90;99.90
20376;DHT22;10347;51.828;6.466;2023-11-19T10:36:55;14.00;99.90
20376;DHT22;10347;51.828;6.466;2023-11-19T10:39:21;14.00;99.90
20376;DHT22;10347;51.828;6.466;2023-11-19T10:41:46;14.00;99.90
20376;DHT22;10347;51.828;6.466;2023-11-19T10:44:12;14.00;99.90
20376;DHT22;10347;51.828;6.466;2023-11-19T10:46:41;14.00;99.90
20376;DHT22;10347;51.828;6.466;2023-11-19T10:49:08;14.10;99.90
20376;DHT22;10347;51.828;6.466;2023-11-19T10:51:33;14.10;99.90
20376;DHT22;10347;51.828;6.466;2023-11-19T10:54:03;14.10;99.90
20376;DHT22;10347;51.828;6.466;2023-11-19T10:56:34;14.10;99.90
20376;DHT22;10347;51.828;6.466;2023-11-19T10:59:00;14.20;99.90
20376;DHT22;10347;51.828;6.466;2023-11-19T11:01:31;14.20;99.90
20376;DHT22;10347;51.828;6.466;2023-11-19T11:03:59;14.20;99.90
20376;DHT22;10347;51.828;6.466;2023-11-19T11:06:27;14.20;99.90
20376;DHT22;10347;51.828;6.466;2023-11-19T11:08:54;14.20;99.90
20376;DHT22;10347;51.828;6.466;2023-11-19T11:11:20;14.20;99.90
20376;DHT22;10347;51.828;6.466;2023-11-19T11:13:50;14.20;99.90
20376;DHT22;10347;51.828;6.466;2023-11-19T11:16:18;14.20;99.90
20376;DHT22;10347;51.828;6.466;2023-11-19T11:18:47;14.20;99.90
20376;DHT22;10347;51.828;6.466;2023-11-19T11:21:21;14.20;99.90
20376;DHT22;10347;51.828;6.466;2023-11-19T11:24:07;14.20;99.90
20376;DHT22;10347;51.828;6.466;2023-11-19T11:37:30;14.40;99.90
20376;DHT22;10347;51.828;6.466;2023-11-19T11:39:57;14.40;99.90
20376;DHT22;10347;51.828;6.466;2023-11-19T11:50:15;14.40;99.90
20376;DHT22;10347;51.828;6.466;2023-11-19T11:55:51;14.50;99.90
20376;DHT22;10347;51.828;6.466;2023-11-19T11:58:27;14.50;99.90
20376;DHT22;10347;51.828;6.466;2023-11-19T12:00:57;14.50;99.90
20376;DHT22;10347;51.828;6.466;2023-11-19T12:03:24;14.50;99.90
20376;DHT22;10347;51.828;6.466;2023-11-19T12:05:52;14.50;99.90
20376;DHT22;10347;51.828;6.466;2023-11-19T12:08:19;14.60;99.90
20376;DHT22;10347;51.828;6.466;2023-11-19T12:13:13;14.60;99.90
20376;DHT22;10347;51.828;6.466;2023-11-19T12:18:30;14.60;99.90
20376;DHT22;10347;51.828;6.466;2023-11-19T12:20:56;14.60;99.90
20376;DHT22;10347;51.828;6.466;2023-11-19T12:23:23;14.60;99.90
20376;DHT22;10347;51.828;6.466;2023-11-19T12:25:48;14.60;99.90
20376;DHT22;10347;51.828;6.466;2023-11-19T12:28:17;14.60;99.90
20376;DHT22;10347;51.828;6.466;2023-11-19T12:30:43;14.60;99.90
20376;DHT22;10347;51.828;6.466;2023-11-19T12:33:09;14.60;99.90
20376;DHT22;10347;51.828;6.466;2023-11-19T12:35:42;14.70;99.90
20376;DHT22;10347;51.828;6.466;2023-11-19T12:38:18;14.60;99.90
20376;DHT22;10347;51.828;6.466;2023-11-19T12:40:43;14.60;99.90
20376;DHT22;10347;51.828;6.466;2023-11-19T12:43:09;14.60;99.90
20376;DHT22;10347;51.828;6.466;2023-11-19T12:45:35;14.60;99.90
20376;DHT22;10347;51.828;6.466;2023-11-19T12:48:05;14.60;99.90
20376;DHT22;10347;51.828;6.466;2023-11-19T12:50:56;14.60;99.90
20376;DHT22;10347;51.828;6.466;2023-11-19T12:53:27;14.60;99.90
20376;DHT22;10347;51.828;6.466;2023-11-19T12:55:55;14.60;99.90
20376;DHT22;10347;51.828;6.466;2023-11-19T12:58:31;14.60;99.90
20376;DHT22;10347;51.828;6.466;2023-11-19T13:01:06;14.60;99.90
20376;DHT22;10347;51.828;6.466;2023-11-19T13:03:34;14.50;99.90
20376;DHT22;10347;51.828;6.466;2023-11-19T13:06:10;14.50;99.90
20376;DHT22;10347;51.828;6.466;2023-11-19T13:08:43;14.50;99.90
20376;DHT22;10347;51.828;6.466;2023-11-19T13:11:10;14.50;99.90
20376;DHT22;10347;51.828;6.466;2023-11-19T13:14:04;14.60;99.90
20376;DHT22;10347;51.828;6.466;2023-11-19T13:16:31;14.60;99.90
20376;DHT22;10347;51.828;6.466;2023-11-19T13:18:57;14.60;99.90
20376;DHT22;10347;51.828;6.466;2023-11-19T13:21:23;14.60;99.90
20376;DHT22;10347;51.828;6.466;2023-11-19T13:23:49;14.60;99.90
20376;DHT22;10347;51.828;6.466;2023-11-19T13:26:14;14.60;99.90
20376;DHT22;10347;51.828;6.466;2023-11-19T13:28:40;14.60;99.90
20376;DHT22;10347;51.828;6.466;2023-11-19T13:31:06;14.70;99.90
20376;DHT22;10347;51.828;6.466;2023-11-19T13:33:31;14.70;99.90
20376;DHT22;10347;51.828;6.466;2023-11-19T13:35:57;14.70;99.90
20376;DHT22;10347;51.828;6.466;2023-11-19T13:38:23;14.70;99.90
20376;DHT22;10347;51.828;6.466;2023-11-19T13:40:49;14.70;99.90
20376;DHT22;10347;51.828;6.466;2023-11-19T13:43:16;14.70;99.90
20376;DHT22;10347;51.828;6.466;2023-11-19T13:45:42;14.70;99.90
20376;DHT22;10347;51.828;6.466;2023-11-19T13:48:07;14.70;99.90
20376;DHT22;10347;51.828;6.466;2023-11-19T13:50:34;14.70;99.90
20376;DHT22;10347;51.828;6.466;2023-11-19T13:52:59;14.70;99.90
20376;DHT22;10347;51.828;6.466;2023-11-19T13:55:25;14.70;99.90
20376;DHT22;10347;51.828;6.466;2023-11-19T13:57:51;14.70;99.90
20376;DHT22;10347;51.828;6.466;2023-11-19T14:00:17;14.70;99.90
20376;DHT22;10347;51.828;6.466;2023-11-19T14:02:45;14.70;99.90
20376;DHT22;10347;51.828;6.466;2023-11-19T14:05:11;14.70;99.90
20376;DHT22;10347;51.828;6.466;2023-11-19T14:07:40;14.70;99.90
20376;DHT22;10347;51.828;6.466;2023-11-19T14:10:07;14.70;99.90
20376;DHT22;10347;51.828;6.466;2023-11-19T14:12:35;14.60;99.90
20376;DHT22;10347;51.828;6.466;2023-11-19T14:15:07;14.60;99.90
20376;DHT22;10347;51.828;6.466;2023-11-19T14:17:35;14.60;99.90
20376;DHT22;10347;51.828;6.466;2023-11-19T14:20:01;14.50;99.90
20376;DHT22;10347;51.828;6.466;2023-11-19T14:22:26;14.50;99.90
20376;DHT22;10347;51.828;6.466;2023-11-19T14:24:52;14.40;99.90
20376;DHT22;10347;51.828;6.466;2023-11-19T14:27:18;14.40;99.90
20376;DHT22;10347;51.828;6.466;2023-11-19T14:29:43;14.30;99.90
20376;DHT22;10347;51.828;6.466;2023-11-19T14:32:10;14.20;99.90
20376;DHT22;10347;51.828;6.466;2023-11-19T14:34:36;14.20;99.90
20376;DHT22;10347;51.828;6.466;2023-11-19T14:37:02;14.20;99.90
20376;DHT22;10347;51.828;6.466;2023-11-19T14:39:28;14.20;99.90
20376;DHT22;10347;51.828;6.466;2023-11-19T14:41:56;14.20;99.90
20376;DHT22;10347;51.828;6.466;2023-11-19T14:44:26;14.20;99.90
20376;DHT22;10347;51.828;6.466;2023-11-19T14:46:52;14.20;99.90
20376;DHT22;10347;51.828;6.466;2023-11-19T14:49:17;14.20;99.90
20376;DHT22;10347;51.828;6.466;2023-11-19T14:51:43;14.20;99.90
20376;DHT22;10347;51.828;6.466;2023-11-19T14:54:08;14.20;99.90
20376;DHT22;10347;51.828;6.466;2023-11-19T14:56:34;14.20;99.90
20376;DHT22;10347;51.828;6.466;2023-11-19T14:59:00;14.20;99.90
20376;DHT22;10347;51.828;6.466;2023-11-19T15:01:25;14.10;99.90
20376;DHT22;10347;51.828;6.466;2023-11-19T15:03:51;14.10;99.90
20376;DHT22;10347;51.828;6.466;2023-11-19T15:06:17;14.10;99.90
20376;DHT22;10347;51.828;6.466;2023-11-19T15:08:42;14.10;99.90
20376;DHT22;10347;51.828;6.466;2023-11-19T15:11:10;14.10;99.90
20376;DHT22;10347;51.828;6.466;2023-11-19T15:13:37;14.10;99.90
20376;DHT22;10347;51.828;6.466;2023-11-19T15:16:03;14.10;99.90
20376;DHT22;10347;51.828;6.466;2023-11-19T15:18:31;14.10;99.90
20376;DHT22;10347;51.828;6.466;2023-11-19T15:20:56;14.10;99.90
20376;DHT22;10347;51.828;6.466;2023-11-19T15:23:22;14.10;99.90
20376;DHT22;10347;51.828;6.466;2023-11-19T15:25:48;14.10;99.90
20376;DHT22;10347;51.828;6.466;2023-11-19T15:28:14;14.10;99.90
20376;DHT22;10347;51.828;6.466;2023-11-19T15:30:40;14.00;99.90
20376;DHT22;10347;51.828;6.466;2023-11-19T15:33:05;14.00;99.90
20376;DHT22;10347;51.828;6.466;2023-11-19T15:35:31;14.00;99.90
20376;DHT22;10347;51.828;6.466;2023-11-19T15:37:56;14.00;99.90
20376;DHT22;10347;51.828;6.466;2023-11-19T15:40:22;14.00;99.90
20376;DHT22;10347;51.828;6.466;2023-11-19T15:42:48;14.00;99.90
20376;DHT22;10347;51.828;6.466;2023-11-19T15:45:13;14.00;99.90
20376;DHT22;10347;51.828;6.466;2023-11-19T15:47:41;14.00;99.90
20376;DHT22;10347;51.828;6.466;2023-11-19T15:50:07;13.90;99.90
20376;DHT22;10347;51.828;6.466;2023-11-19T15:52:35;13.80;99.90
20376;DHT22;10347;51.828;6.466;2023-11-19T15:55:00;13.90;99.90